Time;durP1;ratioP1;P1;durP2;ratioP2;P2;SDS_P1;SDS_P2;PMS_P1;PMS_P2;Temp;Humidity;BMP_temperature;BMP_pressure;BME280_temperature;BME280_humidity;BME280_pressure;Samples;Min_cycle;Max_cycle;Signal;HPM_P1;HPM_P2
2022/11/30 00:01:12;;;;;;;29.05;13.43;;;;;;;5.16;100.00;102209.84;5013340;28;20081;-68
2022/11/30 00:03:37;;;;;;;29.83;13.02;;;;;;;5.13;100.00;102210.53;5011401;28;20037;-68
2022/11/30 00:06:12;;;;;;;27.88;13.00;;;;;;;5.10;100.00;102202.53;5018253;28;20041;-68
2022/11/30 00:08:37;;;;;;;32.22;14.50;;;;;;;5.09;100.00;102207.63;5016650;28;20101;-68
2022/11/30 00:11:08;;;;;;;28.13;13.80;;;;;;;5.13;100.00;102214.84;5028706;28;20747;-68
2022/11/30 00:13:33;;;;;;;27.85;14.25;;;;;;;5.12;100.00;102211.34;5015022;28;20042;-68
2022/11/30 00:16:00;;;;;;;29.40;14.85;;;;;;;5.15;100.00;102218.47;5013287;28;20029;-68
2022/11/30 00:18:25;;;;;;;27.02;14.15;;;;;;;5.16;100.00;102215.94;5018409;28;20121;-69
2022/11/30 00:20:51;;;;;;;30.27;13.73;;;;;;;5.18;100.00;102216.94;5016034;28;20104;-67
2022/11/30 00:23:16;;;;;;;28.98;14.35;;;;;;;5.20;100.00;102220.53;5013359;28;20033;-69
2022/11/30 00:25:41;;;;;;;27.35;14.43;;;;;;;5.22;100.00;102216.31;5032377;28;20029;-69
2022/11/30 00:28:07;;;;;;;26.20;13.95;;;;;;;5.24;100.00;102216.41;5033850;28;20091;-67
2022/11/30 00:30:32;;;;;;;28.33;15.20;;;;;;;5.26;100.00;102209.56;5012489;28;20022;-69
2022/11/30 00:32:57;;;;;;;35.70;17.73;;;;;;;5.30;100.00;102213.28;5016083;28;20036;-72
2022/11/30 00:35:23;;;;;;;35.10;15.60;;;;;;;5.30;100.00;102214.16;5012325;28;20030;-68
2022/11/30 00:37:48;;;;;;;28.17;15.50;;;;;;;5.31;100.00;102215.09;5013916;28;20034;-69
2022/11/30 00:40:14;;;;;;;24.90;13.73;;;;;;;5.32;100.00;102215.16;5018395;28;20026;-69
2022/11/30 00:42:39;;;;;;;39.00;15.82;;;;;;;5.33;100.00;102216.97;5018736;28;20381;-69
2022/11/30 00:45:05;;;;;;;30.48;14.98;;;;;;;5.35;100.00;102212.72;5014144;28;20032;-69
2022/11/30 00:47:30;;;;;;;24.02;13.48;;;;;;;5.34;100.00;102205.69;5011573;28;20033;-68
2022/11/30 00:49:56;;;;;;;24.45;13.43;;;;;;;5.37;100.00;102211.13;5004811;28;20057;-69
2022/11/30 00:52:21;;;;;;;25.10;13.50;;;;;;;5.37;100.00;102211.13;5000263;28;20124;-69
2022/11/30 00:54:47;;;;;;;30.02;13.30;;;;;;;5.40;100.00;102213.91;5006421;28;20103;-70
2022/11/30 00:57:12;;;;;;;30.52;13.68;;;;;;;5.43;100.00;102213.19;5001839;28;20036;-70
2022/11/30 00:59:37;;;;;;;28.02;13.98;;;;;;;5.45;100.00;102216.78;5002118;28;20029;-68
2022/11/30 01:02:03;;;;;;;26.60;14.05;;;;;;;5.45;100.00;102208.94;5011094;28;20050;-68
2022/11/30 01:04:29;;;;;;;30.33;13.63;;;;;;;5.46;100.00;102213.38;5007342;28;20437;-68
2022/11/30 01:06:54;;;;;;;27.52;14.10;;;;;;;5.47;100.00;102209.97;5008171;28;20053;-70
2022/11/30 01:09:20;;;;;;;28.63;13.35;;;;;;;5.47;100.00;102212.56;5009198;28;20120;-69
2022/11/30 01:11:45;;;;;;;28.02;14.02;;;;;;;5.47;100.00;102211.69;5011855;28;20033;-69
2022/11/30 01:14:10;;;;;;;23.35;13.68;;;;;;;5.48;100.00;102214.38;5018172;28;20405;-69
2022/11/30 01:16:36;;;;;;;29.17;13.73;;;;;;;5.48;100.00;102216.06;5016150;28;20033;-68
2022/11/30 01:19:02;;;;;;;25.25;13.95;;;;;;;5.49;100.00;102215.28;5010201;28;20029;-68
2022/11/30 01:21:28;;;;;;;33.72;15.80;;;;;;;5.50;100.00;102215.34;5012942;28;20048;-69
2022/11/30 01:23:54;;;;;;;30.08;14.05;;;;;;;5.52;100.00;102212.84;5023085;28;20389;-69
2022/11/30 01:26:20;;;;;;;26.92;13.57;;;;;;;5.52;100.00;102210.22;5023246;28;20033;-69
2022/11/30 01:28:52;;;;;;;36.33;14.77;;;;;;;5.52;100.00;102212.84;5021983;28;20080;-70
2022/11/30 01:31:19;;;;;;;25.98;13.02;;;;;;;5.53;100.00;102206.81;5014672;28;20034;-69
2022/11/30 01:33:52;;;;;;;26.90;13.10;;;;;;;5.54;100.00;102213.84;5016600;28;20037;-68
2022/11/30 01:36:20;;;;;;;26.92;13.93;;;;;;;5.55;100.00;102218.25;5013557;28;20033;-67
2022/11/30 01:38:51;;;;;;;27.73;13.65;;;;;;;5.56;100.00;102209.59;5016887;28;20032;-68
2022/11/30 01:41:21;;;;;;;34.38;14.77;;;;;;;5.57;100.00;102207.09;5020599;28;20029;-69
2022/11/30 01:43:52;;;;;;;25.13;12.95;;;;;;;5.58;100.00;102210.59;5014871;28;20041;-67
2022/11/30 01:46:20;;;;;;;29.15;13.70;;;;;;;5.59;100.00;102212.41;5015433;28;20095;-68
2022/11/30 01:48:53;;;;;;;25.20;14.10;;;;;;;5.61;100.00;102213.38;5022429;28;20034;-68
2022/11/30 01:51:19;;;;;;;29.55;13.57;;;;;;;5.62;100.00;102214.31;5014758;28;20137;-69
2022/11/30 01:53:45;;;;;;;31.85;13.40;;;;;;;5.61;100.00;102212.50;5023478;28;20521;-69
2022/11/30 01:56:10;;;;;;;28.95;14.35;;;;;;;5.57;100.00;102211.41;5018460;28;20025;-69
2022/11/30 01:58:35;;;;;;;26.20;13.25;;;;;;;5.53;100.00;102212.03;5015990;28;20032;-69
2022/11/30 02:01:01;;;;;;;29.45;14.05;;;;;;;5.48;100.00;102213.47;5022517;28;20037;-70
2022/11/30 02:03:33;;;;;;;22.02;12.95;;;;;;;5.43;100.00;102214.91;5026665;28;20474;-69
2022/11/30 02:05:59;;;;;;;24.70;12.95;;;;;;;5.36;100.00;102218.88;5014036;28;20512;-69
2022/11/30 02:08:26;;;;;;;27.38;12.77;;;;;;;5.32;100.00;102225.59;5013662;28;20043;-69
2022/11/30 02:10:54;;;;;;;31.30;13.88;;;;;;;5.28;100.00;102218.41;5019531;28;20164;-69
2022/11/30 02:13:38;;;;;;;26.90;12.07;;;;;;;5.21;100.00;102218.84;5021488;28;20095;-69
2022/11/30 02:16:34;;;;;;;21.35;11.65;;;;;;;5.16;100.00;102225.50;5018303;28;20056;-68
2022/11/30 02:19:19;;;;;;;25.27;11.80;;;;;;;5.15;100.00;102227.19;5014479;28;20453;-69
2022/11/30 02:22:00;;;;;;;23.20;11.02;;;;;;;5.13;100.00;102220.06;5016399;28;20029;-68
2022/11/30 02:24:42;;;;;;;20.73;10.77;;;;;;;5.14;100.00;102221.88;5014105;28;20041;-69
2022/11/30 02:27:22;;;;;;;26.02;12.13;;;;;;;5.13;100.00;102220.06;5022505;28;20534;-69
2022/11/30 02:30:13;;;;;;;23.45;11.60;;;;;;;5.14;100.00;102230.63;5014480;28;20091;-68
2022/11/30 02:33:03;;;;;;;24.38;11.50;;;;;;;5.12;100.00;102224.38;5013103;28;20033;-68
2022/11/30 02:35:35;;;;;;;24.15;11.88;;;;;;;5.12;100.00;102224.38;5019121;28;20029;-69
2022/11/30 02:38:03;;;;;;;24.02;11.32;;;;;;;5.12;100.00;102227.00;5013356;28;20033;-68
2022/11/30 02:40:28;;;;;;;21.27;11.52;;;;;;;5.14;100.00;102228.00;5015416;28;20033;-69
2022/11/30 02:42:56;;;;;;;22.38;12.50;;;;;;;5.15;100.00;102234.13;5016826;28;20041;-68
2022/11/30 02:46:03;;;;;;;24.27;11.65;;;;;;;5.14;100.00;102234.91;5027010;28;20086;-68
2022/11/30 02:48:39;;;;;;;26.17;12.20;;;;;;;5.20;100.00;102227.47;5009023;28;20046;-69
2022/11/30 02:51:08;;;;;;;24.90;12.43;;;;;;;5.19;100.00;102226.56;5018604;28;20081;-68
2022/11/30 02:53:33;;;;;;;23.13;11.95;;;;;;;5.20;100.00;102228.38;5025545;28;20029;-70
2022/11/30 02:55:58;;;;;;;22.92;12.80;;;;;;;5.19;100.00;102226.56;5017837;28;20036;-70
2022/11/30 02:58:24;;;;;;;21.85;11.25;;;;;;;5.17;100.00;102228.19;5026359;28;20049;-69
2022/11/30 03:00:49;;;;;;;34.33;12.05;;;;;;;5.15;100.00;102226.28;5025828;28;20052;-69
2022/11/30 03:03:14;;;;;;;20.00;10.98;;;;;;;5.13;100.00;102220.06;5014385;28;20022;-69
2022/11/30 03:05:40;;;;;;;21.85;10.57;;;;;;;5.11;100.00;102238.25;5015511;28;20029;-69
2022/11/30 03:08:05;;;;;;;26.25;11.48;;;;;;;5.10;100.00;102231.25;5020047;28;20056;-68
2022/11/30 03:10:30;;;;;;;23.83;12.30;;;;;;;5.10;100.00;102228.63;5013082;28;20120;-68
2022/11/30 03:12:57;;;;;;;25.00;11.60;;;;;;;5.10;100.00;102232.94;5014937;28;20029;-68
2022/11/30 03:15:23;;;;;;;26.58;11.10;;;;;;;5.09;100.00;102234.66;5019638;28;20033;-69
2022/11/30 03:17:48;;;;;;;28.33;12.25;;;;;;;5.07;100.00;102231.03;5029943;28;20351;-68
2022/11/30 03:20:13;;;;;;;23.48;11.20;;;;;;;5.07;100.00;102234.56;5027360;28;20108;-70
2022/11/30 03:22:39;;;;;;;25.50;12.45;;;;;;;5.08;100.00;102232.84;5013558;28;20025;-68
2022/11/30 03:25:05;;;;;;;30.42;13.13;;;;;;;5.10;100.00;102240.75;5028128;28;20021;-68
2022/11/30 03:27:30;;;;;;;26.10;14.05;;;;;;;5.12;100.00;102239.16;5014836;28;20033;-68
2022/11/30 03:29:55;;;;;;;26.70;12.75;;;;;;;5.14;100.00;102243.66;5015557;28;20377;-69
2022/11/30 03:32:21;;;;;;;21.58;11.30;;;;;;;5.15;100.00;102237.63;5026110;28;20025;-70
2022/11/30 03:34:46;;;;;;;24.90;12.45;;;;;;;5.16;100.00;102246.38;5024037;28;20125;-70
2022/11/30 03:37:11;;;;;;;32.60;12.20;;;;;;;5.17;100.00;102242.97;5018106;28;20026;-69
2022/11/30 03:39:37;;;;;;;29.83;12.25;;;;;;;5.15;100.00;102237.63;5013648;28;20065;-69
2022/11/30 03:42:02;;;;;;;20.30;12.10;;;;;;;5.16;100.00;102243.75;5011943;28;20029;-68
2022/11/30 03:44:28;;;;;;;22.35;11.93;;;;;;;5.12;100.00;102239.16;5012295;28;20030;-69
2022/11/30 03:46:54;;;;;;;24.42;12.25;;;;;;;5.08;100.00;102248.50;5020066;28;20033;-71
2022/11/30 03:49:19;;;;;;;21.92;11.30;;;;;;;5.03;100.00;102236.88;5025662;28;20067;-69
2022/11/30 03:51:44;;;;;;;24.05;12.35;;;;;;;4.99;100.00;102238.41;5019925;28;20413;-68
2022/11/30 03:54:10;;;;;;;20.25;11.18;;;;;;;4.97;100.00;102250.44;5012841;28;20034;-68
2022/11/30 03:56:35;;;;;;;25.58;11.60;;;;;;;4.99;100.00;102253.13;5022916;28;20130;-69
2022/11/30 03:59:00;;;;;;;23.17;12.27;;;;;;;4.95;100.00;102262.50;5025971;28;20037;-67
2022/11/30 04:01:26;;;;;;;23.85;12.57;;;;;;;4.96;100.00;102259.06;5015856;28;20070;-69
2022/11/30 04:03:53;;;;;;;26.33;12.40;;;;;;;4.94;100.00;102257.16;5019964;28;20036;-69
2022/11/30 04:06:19;;;;;;;27.25;11.70;;;;;;;4.91;100.00;102255.28;5012319;28;20049;-69
2022/11/30 04:08:45;;;;;;;27.55;12.88;;;;;;;4.92;100.00;102256.19;5012976;28;20057;-69
2022/11/30 04:11:10;;;;;;;23.55;11.80;;;;;;;4.89;100.00;102259.50;5021541;28;20110;-68
2022/11/30 04:13:37;;;;;;;27.05;12.38;;;;;;;4.83;100.00;102256.50;5025309;28;20052;-68
2022/11/30 04:16:03;;;;;;;27.38;12.18;;;;;;;4.79;100.00;102260.63;5013735;28;20455;-70
2022/11/30 04:18:30;;;;;;;28.55;11.40;;;;;;;4.73;100.00;102265.44;5015024;28;20041;-69
2022/11/30 04:20:57;;;;;;;31.52;11.40;;;;;;;4.68;100.00;102265.16;5023045;28;20017;-69
2022/11/30 04:23:24;;;;;;;26.90;12.77;;;;;;;4.66;100.00;102271.09;5011564;28;20026;-68
2022/11/30 04:25:50;;;;;;;24.08;12.32;;;;;;;4.65;100.00;102262.38;5022498;28;20032;-68
2022/11/30 04:28:17;;;;;;;29.85;13.38;;;;;;;4.64;100.00;102265.78;5013765;28;20068;-68
2022/11/30 04:30:43;;;;;;;23.77;12.60;;;;;;;4.66;100.00;102263.25;5010998;28;20076;-68
2022/11/30 04:33:08;;;;;;;26.88;13.20;;;;;;;4.67;100.00;102260.75;5012845;28;20021;-69
2022/11/30 04:35:39;;;;;;;27.58;12.75;;;;;;;4.70;100.00;102265.25;5014982;28;20136;-70
2022/11/30 04:38:05;;;;;;;25.42;12.32;;;;;;;4.71;100.00;102264.47;5039385;28;20083;-69
2022/11/30 04:40:30;;;;;;;29.25;14.50;;;;;;;4.73;100.00;102266.38;5052022;28;20603;-68
2022/11/30 04:42:56;;;;;;;25.83;13.85;;;;;;;4.73;100.00;102258.53;5030619;28;20036;-69
2022/11/30 04:45:21;;;;;;;29.42;14.38;;;;;;;4.78;100.00;102268.38;5012458;28;20052;-69
2022/11/30 04:47:46;;;;;;;29.92;13.65;;;;;;;4.79;100.00;102270.13;5027765;28;20061;-69
2022/11/30 04:50:12;;;;;;;38.08;15.40;;;;;;;4.83;100.00;102272.13;5028301;28;20512;-68
2022/11/30 04:52:37;;;;;;;29.55;14.90;;;;;;;4.86;100.00;102268.03;5011924;28;20493;-69
2022/11/30 04:55:05;;;;;;;30.65;15.00;;;;;;;4.89;100.00;102262.09;5029061;28;20391;-68
2022/11/30 04:57:30;;;;;;;27.52;14.82;;;;;;;4.92;100.00;102270.09;5017638;28;20042;-68
2022/11/30 04:59:56;;;;;;;30.73;14.63;;;;;;;4.92;100.00;102270.09;5028398;28;20010;-70
2022/11/30 05:02:21;;;;;;;26.65;14.88;;;;;;;4.95;100.00;102266.78;5023507;28;20041;-70
2022/11/30 05:04:46;;;;;;;34.00;14.82;;;;;;;4.94;100.00;102271.13;5017205;28;20064;-69
2022/11/30 05:07:12;;;;;;;33.20;14.82;;;;;;;4.94;100.00;102278.03;5010586;28;20022;-70
2022/11/30 05:09:37;;;;;;;32.33;16.40;;;;;;;4.91;100.00;102276.16;5016694;28;20109;-69
2022/11/30 05:12:03;;;;;;;32.03;15.10;;;;;;;4.90;100.00;102274.34;5012479;28;20378;-68
2022/11/30 05:14:28;;;;;;;37.47;16.42;;;;;;;4.91;100.00;102286.59;5010792;28;20026;-69
2022/11/30 05:16:54;;;;;;;31.42;17.20;;;;;;;4.93;100.00;102284.06;5025124;28;20127;-69
2022/11/30 05:19:19;;;;;;;37.95;16.10;;;;;;;4.95;100.00;102282.44;5011870;28;20014;-69
2022/11/30 05:21:45;;;;;;;34.70;17.17;;;;;;;4.96;100.00;102282.53;5011173;28;20030;-68
2022/11/30 05:24:10;;;;;;;37.92;17.05;;;;;;;4.98;100.00;102274.81;5012335;28;20030;-69
2022/11/30 05:26:36;;;;;;;38.67;16.67;;;;;;;5.01;100.00;102280.25;5020202;28;20138;-70
2022/11/30 05:29:04;;;;;;;41.63;17.73;;;;;;;5.02;100.00;102277.72;5016174;28;20083;-68
2022/11/30 05:31:30;;;;;;;32.55;16.95;;;;;;;5.03;100.00;102279.53;5011035;28;20022;-68
2022/11/30 05:33:55;;;;;;;36.97;16.90;;;;;;;5.04;100.00;102276.09;5020255;28;20485;-69
2022/11/30 05:36:21;;;;;;;35.55;16.13;;;;;;;5.04;100.00;102281.31;5013813;28;20041;-68
2022/11/30 05:38:46;;;;;;;35.60;16.65;;;;;;;5.05;100.00;102285.72;5011865;28;20033;-68
2022/11/30 05:41:12;;;;;;;40.90;17.65;;;;;;;5.06;100.00;102277.09;5011829;28;20022;-70
2022/11/30 05:43:37;;;;;;;43.65;19.15;;;;;;;5.09;100.00;102280.69;5011802;28;20076;-68
2022/11/30 05:46:05;;;;;;;43.35;19.80;;;;;;;5.11;100.00;102285.19;5011277;28;20161;-69
2022/11/30 05:48:31;;;;;;;44.10;19.02;;;;;;;5.13;100.00;102282.69;5011565;28;20026;-69
2022/11/30 05:51:08;;;;;;;46.10;17.95;;;;;;;5.11;100.00;102285.19;5016855;28;20359;-68
2022/11/30 05:53:33;;;;;;;38.53;18.05;;;;;;;5.12;100.00;102286.13;5015071;28;20045;-69
2022/11/30 05:56:04;;;;;;;41.55;18.75;;;;;;;5.15;100.00;102291.53;5023436;28;20021;-69
2022/11/30 05:58:30;;;;;;;47.28;18.05;;;;;;;5.16;100.00;102293.34;5010949;28;20049;-69
2022/11/30 06:00:55;;;;;;;45.65;20.73;;;;;;;5.17;100.00;102296.03;5011401;28;20048;-69
2022/11/30 06:03:20;;;;;;;41.83;17.90;;;;;;;5.18;100.00;102297.84;5010230;28;20038;-68
2022/11/30 06:05:50;;;;;;;42.65;19.13;;;;;;;5.21;100.00;102304.97;5010364;28;20033;-69
2022/11/30 06:08:15;;;;;;;42.65;19.33;;;;;;;5.22;100.00;102304.13;5009979;28;20459;-69
2022/11/30 06:10:41;;;;;;;55.22;19.65;;;;;;;5.24;100.00;102307.75;5010417;28;20152;-69
2022/11/30 06:13:08;;;;;;;41.45;19.63;;;;;;;5.24;100.00;102307.75;5014859;28;20055;-68
2022/11/30 06:15:35;;;;;;;40.70;18.77;;;;;;;5.24;100.00;102305.16;5014255;28;20043;-68
2022/11/30 06:18:00;;;;;;;35.05;18.55;;;;;;;5.25;100.00;102306.97;5017143;28;20568;-69
2022/11/30 06:20:26;;;;;;;42.72;17.88;;;;;;;5.27;100.00;102307.94;5013093;28;20026;-70
2022/11/30 06:22:51;;;;;;;43.38;19.02;;;;;;;5.28;100.00;102308.84;5013637;28;20032;-68
2022/11/30 06:25:17;;;;;;;41.15;19.80;;;;;;;5.28;100.00;102309.75;5012874;28;20049;-68
2022/11/30 06:27:42;;;;;;;45.53;18.90;;;;;;;5.29;100.00;102311.56;5015493;28;20034;-69
2022/11/30 06:30:08;;;;;;;47.22;19.23;;;;;;;5.30;100.00;102308.13;5011337;28;20034;-69
2022/11/30 06:32:34;;;;;;;41.58;19.45;;;;;;;5.31;100.00;102309.03;5013065;28;20041;-69
2022/11/30 06:34:59;;;;;;;46.97;19.10;;;;;;;5.31;100.00;102307.31;5011982;28;20026;-70
2022/11/30 06:37:24;;;;;;;43.90;19.17;;;;;;;5.33;100.00;102318.78;5013934;28;20030;-70
2022/11/30 06:39:49;;;;;;;40.80;19.45;;;;;;;5.35;100.00;102311.03;5013637;28;20096;-69
2022/11/30 06:42:15;;;;;;;44.95;20.02;;;;;;;5.35;100.00;102308.41;5012336;28;20489;-68
2022/11/30 06:44:40;;;;;;;47.40;19.70;;;;;;;5.37;100.00;102310.31;5013159;28;20030;-68
2022/11/30 06:47:05;;;;;;;41.80;20.58;;;;;;;5.37;100.00;102320.75;5014918;28;20493;-70
2022/11/30 06:49:31;;;;;;;44.67;20.70;;;;;;;5.40;100.00;102322.66;5013906;28;20045;-69
2022/11/30 06:51:56;;;;;;;39.45;20.50;;;;;;;5.42;100.00;102318.41;5010321;28;20156;-69
2022/11/30 06:54:21;;;;;;;50.53;21.30;;;;;;;5.42;100.00;102322.75;5021782;28;20029;-69
2022/11/30 06:56:47;;;;;;;44.33;19.40;;;;;;;5.44;100.00;102315.91;5016674;28;20036;-70
2022/11/30 06:59:12;;;;;;;44.75;20.60;;;;;;;5.43;100.00;102321.94;5021257;28;20018;-67
2022/11/30 07:01:38;;;;;;;45.72;20.45;;;;;;;5.44;100.00;102321.13;5027116;28;20080;-68
2022/11/30 07:04:03;;;;;;;36.53;19.17;;;;;;;5.44;100.00;102322.03;5016581;28;20061;-68
2022/11/30 07:06:29;;;;;;;46.00;20.80;;;;;;;5.44;100.00;102322.03;5018962;28;20273;-68
2022/11/30 07:08:54;;;;;;;42.08;19.27;;;;;;;5.45;100.00;102329.03;5032645;28;20025;-70
2022/11/30 07:11:19;;;;;;;48.55;20.50;;;;;;;5.45;100.00;102333.38;5038118;28;20030;-69
2022/11/30 07:13:45;;;;;;;38.40;18.25;;;;;;;5.47;100.00;102334.38;5029765;28;20033;-71
2022/11/30 07:16:10;;;;;;;46.63;21.05;;;;;;;5.48;100.00;102341.38;5034272;28;20034;-70
2022/11/30 07:18:36;;;;;;;52.15;19.83;;;;;;;5.48;100.00;102338.78;5018486;28;20029;-70
2022/11/30 07:21:03;;;;;;;52.10;20.77;;;;;;;5.48;100.00;102346.59;5022813;28;20491;-69
2022/11/30 07:26:13;;;;;;;44.95;19.77;;;;;;;5.46;100.00;102346.50;5032354;28;20050;-69
2022/11/30 07:28:40;;;;;;;48.75;20.55;;;;;;;5.47;100.00;102350.06;5036088;28;20481;-72
2022/11/30 07:31:19;;;;;;;53.08;20.95;;;;;;;5.47;100.00;102356.16;5026948;28;20029;-68
2022/11/30 07:33:44;;;;;;;46.65;21.23;;;;;;;5.49;100.00;102361.47;5033348;28;20127;-68
2022/11/30 07:36:10;;;;;;;42.53;20.98;;;;;;;5.49;100.00;102361.47;5038682;28;20135;-69
2022/11/30 07:38:37;;;;;;;46.97;20.67;;;;;;;5.48;100.00;102357.06;5019833;28;20024;-69
2022/11/30 07:41:02;;;;;;;43.88;20.50;;;;;;;5.49;100.00;102361.47;5018369;28;20053;-68
2022/11/30 07:43:27;;;;;;;54.78;21.25;;;;;;;5.50;100.00;102363.28;5029555;28;20034;-68
2022/11/30 07:45:53;;;;;;;49.33;21.98;;;;;;;5.49;100.00;102358.84;5023031;28;20029;-69
2022/11/30 07:48:20;;;;;;;52.13;21.65;;;;;;;5.49;100.00;102364.09;5031651;28;20609;-70
2022/11/30 07:50:46;;;;;;;54.58;20.67;;;;;;;5.49;100.00;102366.69;5036902;28;20723;-69
2022/11/30 07:53:11;;;;;;;50.83;20.98;;;;;;;5.51;100.00;102363.38;5033154;28;20055;-68
2022/11/30 07:55:37;;;;;;;45.05;21.40;;;;;;;5.52;100.00;102366.88;5037365;28;20100;-69
2022/11/30 07:58:02;;;;;;;44.35;20.10;;;;;;;5.51;100.00;102371.22;5031392;28;20017;-69
2022/11/30 08:00:27;;;;;;;49.88;21.73;;;;;;;5.53;100.00;102368.69;5022317;28;20438;-69
2022/11/30 08:02:53;;;;;;;47.00;20.42;;;;;;;5.54;100.00;102371.38;5027780;28;20389;-69
2022/11/30 08:05:18;;;;;;;50.75;21.23;;;;;;;5.56;100.00;102374.09;5021937;28;20393;-69
2022/11/30 08:07:44;;;;;;;47.25;20.88;;;;;;;5.56;100.00;102375.00;5027042;28;20540;-70
2022/11/30 08:10:10;;;;;;;44.50;20.25;;;;;;;5.58;100.00;102382.94;5030401;28;20026;-71
2022/11/30 08:12:36;;;;;;;52.38;22.20;;;;;;;5.60;100.00;102386.53;5024648;28;20461;-69
2022/11/30 08:15:01;;;;;;;44.38;20.20;;;;;;;5.62;100.00;102390.16;5023107;28;20092;-68
2022/11/30 08:17:26;;;;;;;48.03;21.45;;;;;;;5.65;100.00;102394.66;5029844;28;20025;-69
2022/11/30 08:19:52;;;;;;;50.97;20.27;;;;;;;5.67;100.00;102399.19;5036771;28;20512;-71
2022/11/30 08:22:17;;;;;;;45.70;20.33;;;;;;;5.70;100.00;102398.47;5035169;28;20469;-69
2022/11/30 08:24:42;;;;;;;51.35;22.27;;;;;;;5.72;100.00;102392.53;5042327;28;20024;-69
2022/11/30 08:27:08;;;;;;;56.92;22.90;;;;;;;5.74;100.00;102390.91;5042467;28;20032;-68
2022/11/30 08:29:33;;;;;;;51.90;23.27;;;;;;;5.76;100.00;102396.22;5026945;28;20045;-69
2022/11/30 08:31:58;;;;;;;55.85;23.88;;;;;;;5.78;100.00;102398.91;5029122;28;20021;-68
2022/11/30 08:34:25;;;;;;;49.35;21.65;;;;;;;5.79;100.00;102398.13;5027080;28;20029;-69
2022/11/30 08:36:51;;;;;;;57.22;24.67;;;;;;;5.84;100.00;102402.81;5020429;28;20036;-67
2022/11/30 08:39:16;;;;;;;59.95;24.27;;;;;;;5.88;100.00;102406.50;5012880;28;20030;-69
2022/11/30 08:41:41;;;;;;;55.58;24.40;;;;;;;5.95;100.00;102408.69;5025376;28;20060;-69
2022/11/30 08:44:07;;;;;;;69.72;25.60;;;;;;;6.01;100.00;102409.09;5031668;28;20044;-69
2022/11/30 08:46:32;;;;;;;67.55;26.52;;;;;;;6.06;100.00;102415.50;5026860;28;20974;-71
2022/11/30 08:48:58;;;;;;;74.45;28.58;;;;;;;6.11;100.00;102414.88;5019641;28;20375;-69
2022/11/30 08:51:23;;;;;;;69.70;25.83;;;;;;;6.14;100.00;102421.19;5022999;28;20366;-70
2022/11/30 08:53:49;;;;;;;73.63;28.17;;;;;;;6.19;100.00;102424.97;5032493;28;20029;-67
2022/11/30 08:56:19;;;;;;;69.57;25.95;;;;;;;6.25;100.00;102419.22;5024808;28;20538;-69
2022/11/30 08:58:46;;;;;;;71.90;26.75;;;;;;;6.30;100.00;102420.38;5026145;28;20018;-69
2022/11/30 09:01:12;;;;;;;70.43;26.38;;;;;;;6.34;100.00;102416.25;5012914;28;20042;-68
2022/11/30 09:03:38;;;;;;;76.68;26.95;;;;;;;6.39;100.00;102420.06;5012333;28;20277;-70
2022/11/30 09:06:06;;;;;;;77.00;27.60;;;;;;;6.45;100.00;102419.50;5012255;28;20060;-68
2022/11/30 09:08:32;;;;;;;79.18;29.60;;;;;;;6.50;100.00;102420.69;5012264;28;20057;-68
2022/11/30 09:10:57;;;;;;;75.65;27.55;;;;;;;6.54;100.00;102422.66;5012664;28;20049;-69
2022/11/30 09:13:22;;;;;;;72.68;27.60;;;;;;;6.60;100.00;102419.50;5012005;28;20049;-69
2022/11/30 09:15:54;;;;;;;80.13;30.88;;;;;;;6.65;100.00;102424.19;5013310;28;20164;-69
2022/11/30 09:18:23;;;;;;;81.25;28.70;;;;;;;6.70;100.00;102422.75;5012654;28;20160;-68
2022/11/30 09:20:48;;;;;;;77.03;28.08;;;;;;;6.73;100.00;102428.16;5012418;28;20476;-68
2022/11/30 09:23:14;;;;;;;69.30;27.30;;;;;;;6.79;100.00;102434.56;5022482;28;20056;-68
2022/11/30 09:25:39;;;;;;;84.45;30.08;;;;;;;6.84;100.00;102435.72;5026276;28;20068;-69
2022/11/30 09:28:04;;;;;;;84.07;29.73;;;;;;;6.88;100.00;102432.47;5030615;28;20060;-69
2022/11/30 09:30:30;;;;;;;74.80;28.27;;;;;;;6.94;100.00;102438.03;5025777;28;20099;-69
2022/11/30 09:32:58;;;;;;;88.32;29.85;;;;;;;7.01;100.00;102436.66;5021656;28;20025;-69
2022/11/30 09:35:23;;;;;;;73.85;29.38;;;;;;;7.09;100.00;102441.53;5019234;28;20022;-68
2022/11/30 09:37:49;;;;;;;78.43;28.83;;;;;;;7.15;100.00;102443.59;5022773;28;20450;-69
2022/11/30 09:40:16;;;;;;;78.45;30.23;;;;;;;7.21;100.00;102449.16;5019825;28;20021;-69
2022/11/30 09:42:53;;;;;;;79.10;27.70;;;;;;;7.26;100.00;102446.81;5014930;28;20473;-70
2022/11/30 09:45:27;;;;;;;71.93;26.98;;;;;;;7.32;100.00;102455.00;5023301;28;20478;-70
2022/11/30 09:48:22;;;;;;;77.88;28.25;;;;;;;7.35;100.00;102451.66;5034636;28;20075;-70
2022/11/30 09:50:49;;;;;;;77.57;29.38;;;;;;;7.30;100.00;102448.78;5040586;28;20029;-70
2022/11/30 09:53:30;;;;;;;82.43;28.20;;;;;;;7.30;100.00;102447.88;5034646;28;20473;-70
2022/11/30 09:55:57;;;;;;;68.38;27.70;;;;;;;7.38;100.00;102454.44;5036010;28;20025;-70
2022/11/30 09:58:38;;;;;;;70.30;27.25;;;;;;;7.30;100.00;102461.88;5027531;28;20034;-70
2022/11/30 10:01:12;;;;;;;74.75;27.52;;;;;;;7.31;100.00;102453.22;5014547;28;20852;-69
2022/11/30 10:03:37;;;;;;;66.55;25.75;;;;;;;7.31;100.00;102458.47;5015595;28;20105;-69
2022/11/30 10:06:24;;;;;;;66.25;27.23;;;;;;;7.33;100.00;102459.44;5015277;28;20064;-69
2022/11/30 10:09:12;;;;;;;65.40;26.75;;;;;;;7.34;100.00;102466.47;5014812;28;20022;-69
2022/11/30 10:11:49;;;;;;;69.82;27.00;;;;;;;7.36;100.00;102463.94;5015283;28;20041;-70
2022/11/30 10:14:32;;;;;;;61.95;25.60;;;;;;;7.37;100.00;102466.63;5014934;28;20018;-70
2022/11/30 10:17:15;;;;;;;71.67;27.20;;;;;;;7.40;100.00;102466.81;5020757;28;20022;-69
2022/11/30 10:19:49;;;;;;;65.78;26.48;;;;;;;7.41;100.00;102463.38;5014476;28;20693;-69
2022/11/30 10:22:20;;;;;;;77.35;29.90;;;;;;;7.43;100.00;102466.06;5021368;28;20025;-70
2022/11/30 10:24:52;;;;;;;77.03;28.60;;;;;;;7.49;100.00;102460.25;5023794;28;20033;-70
2022/11/30 10:27:38;;;;;;;71.53;28.77;;;;;;;7.56;100.00;102454.56;5017664;28;20036;-71
2022/11/30 10:30:13;;;;;;;63.80;27.77;;;;;;;7.54;100.00;102459.72;5027686;28;20056;-70
2022/11/30 10:32:50;;;;;;;63.75;27.23;;;;;;;7.57;100.00;102452.03;5015887;28;20036;-70
2022/11/30 10:35:22;;;;;;;70.75;30.13;;;;;;;7.60;100.00;102453.91;5026417;28;20061;-70
2022/11/30 10:37:50;;;;;;;67.75;28.38;;;;;;;7.68;100.00;102447.38;5030308;28;20021;-69
2022/11/30 10:40:29;;;;;;;76.30;30.92;;;;;;;7.80;100.00;102447.16;5038219;28;20424;-69
2022/11/30 10:43:16;;;;;;;66.20;29.30;;;;;;;8.05;100.00;102446.72;5035497;28;20025;-71
2022/11/30 10:45:47;;;;;;;69.93;29.75;;;;;;;8.32;100.00;102448.97;5036094;28;20033;-70
2022/11/30 10:48:20;;;;;;;67.47;29.30;;;;;;;8.78;100.00;102453.97;5034711;28;20044;-68
2022/11/30 10:50:46;;;;;;;59.08;26.05;;;;;;;9.01;100.00;102448.06;5028504;28;20036;-67
2022/11/30 10:53:12;;;;;;;48.58;24.10;;;;;;;9.07;100.00;102445.72;5026534;28;20190;-68
2022/11/30 10:55:43;;;;;;;48.00;24.45;;;;;;;9.04;100.00;102449.09;5017236;28;20065;-68
2022/11/30 10:58:21;;;;;;;45.20;23.77;;;;;;;9.03;100.00;102447.28;5021550;28;20037;-69
2022/11/30 11:01:04;;;;;;;42.45;23.15;;;;;;;8.98;100.00;102443.56;5024493;28;20045;-69
2022/11/30 11:03:30;;;;;;;46.90;22.42;;;;;;;8.87;100.00;102439.50;5023986;28;20061;-68
2022/11/30 11:06:21;;;;;;;41.55;21.95;;;;;;;8.78;100.00;102438.22;5027967;28;20061;-69
2022/11/30 11:08:46;;;;;;;36.30;20.50;;;;;;;8.72;100.00;102445.81;5014809;28;20037;-69
2022/11/30 11:11:27;;;;;;;38.85;20.90;;;;;;;8.70;100.00;102447.44;5014610;28;20018;-68
2022/11/30 11:14:27;;;;;;;40.00;21.20;;;;;;;8.68;100.00;102443.84;5028927;28;20036;-69
2022/11/30 11:17:04;;;;;;;37.80;19.70;;;;;;;8.63;100.00;102442.72;5016736;28;20072;-69